sensor_id;sensor_type;location;lat;lon;timestamp;pressure;altitude;pressure_sealevel;temperature;humidity
6413;BME280;3239;48.714;9.472;2023-02-04T00:01:05;99962.63;;;6.93;100.00
6413;BME280;3239;48.714;9.472;2023-02-04T00:03:31;99960.38;;;6.92;100.00
6413;BME280;3239;48.714;9.472;2023-02-04T00:05:57;99967.31;;;7.02;100.00
6413;BME280;3239;48.714;9.472;2023-02-04T00:08:23;99969.00;;;6.99;100.00
6413;BME280;3239;48.714;9.472;2023-02-04T00:10:48;99979.75;;;7.03;100.00
6413;BME280;3239;48.714;9.472;2023-02-04T00:13:14;99979.25;;;7.04;100.00
6413;BME280;3239;48.714;9.472;2023-02-04T00:15:40;99966.56;;;7.01;100.00
6413;BME280;3239;48.714;9.472;2023-02-04T00:18:06;99954.44;;;7.02;100.00
6413;BME280;3239;48.714;9.472;2023-02-04T00:20:32;99950.22;;;7.10;100.00
6413;BME280;3239;48.714;9.472;2023-02-04T00:22:58;99940.03;;;7.11;100.00
6413;BME280;3239;48.714;9.472;2023-02-04T00:25:24;99944.44;;;7.08;100.00
6413;BME280;3239;48.714;9.472;2023-02-04T00:27:50;99946.56;;;7.13;100.00
6413;BME280;3239;48.714;9.472;2023-02-04T00:30:16;99948.22;;;7.11;100.00
6413;BME280;3239;48.714;9.472;2023-02-04T00:32:41;99954.44;;;7.11;100.00
6413;BME280;3239;48.714;9.472;2023-02-04T00:35:08;99960.34;;;7.10;100.00
6413;BME280;3239;48.714;9.472;2023-02-04T00:37:34;99967.47;;;7.07;100.00
6413;BME280;3239;48.714;9.472;2023-02-04T00:40:00;99969.75;;;7.09;100.00
6413;BME280;3239;48.714;9.472;2023-02-04T00:42:26;99960.06;;;7.08;100.00
6413;BME280;3239;48.714;9.472;2023-02-04T00:44:52;99967.75;;;7.09;100.00
6413;BME280;3239;48.714;9.472;2023-02-04T00:47:18;99957.31;;;7.08;100.00
6413;BME280;3239;48.714;9.472;2023-02-04T00:49:44;99960.94;;;7.05;100.00
6413;BME280;3239;48.714;9.472;2023-02-04T00:52:10;99964.91;;;7.04;100.00
6413;BME280;3239;48.714;9.472;2023-02-04T00:54:35;99960.19;;;7.04;100.00
6413;BME280;3239;48.714;9.472;2023-02-04T00:57:01;99960.78;;;7.08;100.00
6413;BME280;3239;48.714;9.472;2023-02-04T00:59:27;99964.56;;;7.11;100.00
6413;BME280;3239;48.714;9.472;2023-02-04T01:01:53;99969.13;;;7.14;100.00
6413;BME280;3239;48.714;9.472;2023-02-04T01:04:19;99960.06;;;7.08;100.00
6413;BME280;3239;48.714;9.472;2023-02-04T01:06:45;99966.41;;;7.05;100.00
6413;BME280;3239;48.714;9.472;2023-02-04T01:09:11;99966.13;;;7.03;100.00
6413;BME280;3239;48.714;9.472;2023-02-04T01:11:37;99961.56;;;7.09;100.00
6413;BME280;3239;48.714;9.472;2023-02-04T01:14:02;99956.28;;;7.05;100.00
6413;BME280;3239;48.714;9.472;2023-02-04T01:16:28;99953.69;;;7.02;100.00
6413;BME280;3239;48.714;9.472;2023-02-04T01:18:54;99952.00;;;7.04;100.00
6413;BME280;3239;48.714;9.472;2023-02-04T01:21:24;99949.28;;;7.04;100.00
6413;BME280;3239;48.714;9.472;2023-02-04T01:23:50;99955.50;;;7.05;100.00
6413;BME280;3239;48.714;9.472;2023-02-04T01:26:18;99938.69;;;7.06;100.00
6413;BME280;3239;48.714;9.472;2023-02-04T01:28:44;99926.91;;;7.00;100.00
6413;BME280;3239;48.714;9.472;2023-02-04T01:31:11;99938.25;;;7.08;100.00
6413;BME280;3239;48.714;9.472;2023-02-04T01:33:37;99932.47;;;7.06;100.00
6413;BME280;3239;48.714;9.472;2023-02-04T01:36:03;99913.84;;;7.04;100.00
6413;BME280;3239;48.714;9.472;2023-02-04T01:38:29;99910.84;;;7.02;100.00
6413;BME280;3239;48.714;9.472;2023-02-04T01:40:55;99906.44;;;7.05;100.00
6413;BME280;3239;48.714;9.472;2023-02-04T01:43:22;99903.44;;;7.03;100.00
6413;BME280;3239;48.714;9.472;2023-02-04T01:45:49;99900.88;;;6.99;100.00
6413;BME280;3239;48.714;9.472;2023-02-04T01:48:18;99887.38;;;6.96;100.00
6413;BME280;3239;48.714;9.472;2023-02-04T01:51:10;99878.94;;;6.94;100.00
6413;BME280;3239;48.714;9.472;2023-02-04T01:53:38;99855.56;;;7.02;100.00
6413;BME280;3239;48.714;9.472;2023-02-04T01:56:22;99840.31;;;6.95;100.00
6413;BME280;3239;48.714;9.472;2023-02-04T01:58:48;99833.50;;;6.91;100.00
6413;BME280;3239;48.714;9.472;2023-02-04T02:03:59;99835.31;;;6.94;100.00
6413;BME280;3239;48.714;9.472;2023-02-04T02:06:26;99828.66;;;6.95;100.00
6413;BME280;3239;48.714;9.472;2023-02-04T02:08:52;99839.56;;;6.95;100.00
6413;BME280;3239;48.714;9.472;2023-02-04T02:11:18;99848.03;;;6.97;100.00
6413;BME280;3239;48.714;9.472;2023-02-04T02:13:44;99840.78;;;6.94;100.00
6413;BME280;3239;48.714;9.472;2023-02-04T02:16:10;99842.28;;;6.95;100.00
6413;BME280;3239;48.714;9.472;2023-02-04T02:18:36;99841.22;;;6.92;100.00
6413;BME280;3239;48.714;9.472;2023-02-04T02:21:07;99848.34;;;6.90;100.00
6413;BME280;3239;48.714;9.472;2023-02-04T02:23:53;99845.47;;;6.93;100.00
6413;BME280;3239;48.714;9.472;2023-02-04T02:26:20;99832.44;;;6.88;100.00
6413;BME280;3239;48.714;9.472;2023-02-04T02:28:48;99845.59;;;6.99;100.00
6413;BME280;3239;48.714;9.472;2023-02-04T02:31:16;99851.06;;;6.90;100.00
6413;BME280;3239;48.714;9.472;2023-02-04T02:33:43;99856.06;;;6.91;100.00
6413;BME280;3239;48.714;9.472;2023-02-04T02:36:09;99859.25;;;6.90;100.00
6413;BME280;3239;48.714;9.472;2023-02-04T02:38:35;99859.41;;;6.86;100.00
6413;BME280;3239;48.714;9.472;2023-02-04T02:41:02;99861.09;;;6.84;100.00
6413;BME280;3239;48.714;9.472;2023-02-04T02:43:29;99856.22;;;6.88;100.00
6413;BME280;3239;48.714;9.472;2023-02-04T02:45:58;99855.63;;;6.84;100.00
6413;BME280;3239;48.714;9.472;2023-02-04T02:48:25;99871.22;;;6.83;100.00
6413;BME280;3239;48.714;9.472;2023-02-04T02:50:51;99868.97;;;6.82;100.00
6413;BME280;3239;48.714;9.472;2023-02-04T02:53:19;99886.22;;;6.79;100.00
6413;BME280;3239;48.714;9.472;2023-02-04T02:55:46;99887.16;;;6.76;100.00
6413;BME280;3239;48.714;9.472;2023-02-04T03:00:47;99892.44;;;6.79;100.00
6413;BME280;3239;48.714;9.472;2023-02-04T03:03:21;99894.38;;;6.88;100.00
6413;BME280;3239;48.714;9.472;2023-02-04T03:05:51;99880.88;;;6.93;100.00
6413;BME280;3239;48.714;9.472;2023-02-04T03:08:19;99884.38;;;6.85;100.00
6413;BME280;3239;48.714;9.472;2023-02-04T03:10:45;99884.84;;;6.83;100.00
6413;BME280;3239;48.714;9.472;2023-02-04T03:13:13;99871.06;;;6.87;100.00
6413;BME280;3239;48.714;9.472;2023-02-04T03:15:42;99878.66;;;6.83;100.00
6413;BME280;3239;48.714;9.472;2023-02-04T03:18:09;99880.31;;;6.80;100.00
6413;BME280;3239;48.714;9.472;2023-02-04T03:20:35;99867.16;;;6.79;100.00
6413;BME280;3239;48.714;9.472;2023-02-04T03:23:02;99863.38;;;6.76;100.00
6413;BME280;3239;48.714;9.472;2023-02-04T03:25:27;99858.97;;;6.70;100.00
6413;BME280;3239;48.714;9.472;2023-02-04T03:27:55;99869.44;;;6.71;100.00
6413;BME280;3239;48.714;9.472;2023-02-04T03:30:23;99862.19;;;6.68;100.00
6413;BME280;3239;48.714;9.472;2023-02-04T03:32:49;99861.13;;;6.66;100.00
6413;BME280;3239;48.714;9.472;2023-02-04T03:35:16;99872.31;;;6.68;100.00
6413;BME280;3239;48.714;9.472;2023-02-04T03:37:42;99866.25;;;6.64;100.00
6413;BME280;3239;48.714;9.472;2023-02-04T03:40:09;99859.47;;;6.59;100.00
6413;BME280;3239;48.714;9.472;2023-02-04T03:42:35;99868.69;;;6.62;100.00
6413;BME280;3239;48.714;9.472;2023-02-04T03:45:01;99870.38;;;6.59;100.00
6413;BME280;3239;48.714;9.472;2023-02-04T03:47:26;99872.19;;;6.62;100.00
6413;BME280;3239;48.714;9.472;2023-02-04T03:49:52;99865.81;;;6.56;100.00
6413;BME280;3239;48.714;9.472;2023-02-04T03:52:18;99857.19;;;6.58;100.00
6413;BME280;3239;48.714;9.472;2023-02-04T03:54:45;99856.13;;;6.55;100.00
6413;BME280;3239;48.714;9.472;2023-02-04T03:57:11;99854.47;;;6.58;100.00
6413;BME280;3239;48.714;9.472;2023-02-04T03:59:37;99857.19;;;6.58;100.00
6413;BME280;3239;48.714;9.472;2023-02-04T04:02:03;99863.69;;;6.60;100.00
6413;BME280;3239;48.714;9.472;2023-02-04T04:04:29;99855.53;;;6.60;100.00
6413;BME280;3239;48.714;9.472;2023-02-04T04:06:55;99858.09;;;6.64;100.00
6413;BME280;3239;48.714;9.472;2023-02-04T04:09:20;99853.25;;;6.59;100.00
6413;BME280;3239;48.714;9.472;2023-02-04T04:11:46;99842.53;;;6.55;100.00
6413;BME280;3239;48.714;9.472;2023-02-04T04:14:12;99841.31;;;6.56;100.00
6413;BME280;3239;48.714;9.472;2023-02-04T04:16:38;99842.97;;;6.63;100.00
6413;BME280;3239;48.714;9.472;2023-02-04T04:19:03;99829.22;;;6.57;100.00
6413;BME280;3239;48.714;9.472;2023-02-04T04:21:29;99825.13;;;6.53;100.00
6413;BME280;3239;48.714;9.472;2023-02-04T04:23:55;99830.44;;;6.47;100.00
6413;BME280;3239;48.714;9.472;2023-02-04T04:26:21;99837.06;;;6.46;100.00
6413;BME280;3239;48.714;9.472;2023-02-04T04:28:46;99853.41;;;6.46;100.00
6413;BME280;3239;48.714;9.472;2023-02-04T04:31:12;99854.06;;;6.41;100.00
6413;BME280;3239;48.714;9.472;2023-02-04T04:33:38;99854.06;;;6.41;100.00
6413;BME280;3239;48.714;9.472;2023-02-04T04:36:05;99863.72;;;6.42;100.00
6413;BME280;3239;48.714;9.472;2023-02-04T04:38:31;99865.84;;;6.38;100.00
6413;BME280;3239;48.714;9.472;2023-02-04T04:40:57;99876.88;;;6.35;100.00
6413;BME280;3239;48.714;9.472;2023-02-04T04:43:22;99874.75;;;6.30;100.00
6413;BME280;3239;48.714;9.472;2023-02-04T04:45:48;99870.22;;;6.27;100.00
6413;BME280;3239;48.714;9.472;2023-02-04T04:48:14;99867.50;;;6.27;100.00
6413;BME280;3239;48.714;9.472;2023-02-04T04:50:40;99862.22;;;6.23;100.00
6413;BME280;3239;48.714;9.472;2023-02-04T04:53:06;99865.25;;;6.25;100.00
6413;BME280;3239;48.714;9.472;2023-02-04T04:55:36;99873.88;;;6.24;100.00
6413;BME280;3239;48.714;9.472;2023-02-04T04:58:04;99881.56;;;6.16;100.00
6413;BME280;3239;48.714;9.472;2023-02-04T05:00:30;99883.84;;;6.18;100.00
6413;BME280;3239;48.714;9.472;2023-02-04T05:02:55;99892.91;;;6.15;100.00
6413;BME280;3239;48.714;9.472;2023-02-04T05:05:21;99893.78;;;6.12;100.00
6413;BME280;3239;48.714;9.472;2023-02-04T05:07:47;99897.59;;;6.23;100.00
6413;BME280;3239;48.714;9.472;2023-02-04T05:10:13;99898.34;;;6.15;100.00
6413;BME280;3239;48.714;9.472;2023-02-04T05:12:39;99895.63;;;6.15;100.00
6413;BME280;3239;48.714;9.472;2023-02-04T05:15:05;99896.06;;;6.13;100.00
6413;BME280;3239;48.714;9.472;2023-02-04T05:17:30;99888.34;;;6.03;100.00
6413;BME280;3239;48.714;9.472;2023-02-04T05:19:56;99896.19;;;6.01;100.00
6413;BME280;3239;48.714;9.472;2023-02-04T05:22:22;99903.16;;;6.02;100.00
6413;BME280;3239;48.714;9.472;2023-02-04T05:24:48;99911.59;;;5.95;100.00
6413;BME280;3239;48.714;9.472;2023-02-04T05:27:13;99905.88;;;6.02;100.00
6413;BME280;3239;48.714;9.472;2023-02-04T05:29:39;99893.47;;;5.92;100.00
6413;BME280;3239;48.714;9.472;2023-02-04T05:32:05;99910.72;;;5.98;100.00
6413;BME280;3239;48.714;9.472;2023-02-04T05:34:30;99915.09;;;5.95;100.00
6413;BME280;3239;48.714;9.472;2023-02-04T05:36:56;99913.25;;;5.92;100.00
6413;BME280;3239;48.714;9.472;2023-02-04T05:39:22;99923.25;;;5.95;100.00
6413;BME280;3239;48.714;9.472;2023-02-04T05:41:47;99930.97;;;5.97;100.00
6413;BME280;3239;48.714;9.472;2023-02-04T05:44:13;99939.56;;;5.95;100.00
6413;BME280;3239;48.714;9.472;2023-02-04T05:46:39;99946.66;;;5.93;100.00
6413;BME280;3239;48.714;9.472;2023-02-04T05:49:05;99952.56;;;5.91;100.00
6413;BME280;3239;48.714;9.472;2023-02-04T05:51:32;99938.34;;;5.87;100.00
6413;BME280;3239;48.714;9.472;2023-02-04T05:53:57;99946.34;;;5.91;100.00
6413;BME280;3239;48.714;9.472;2023-02-04T05:56:23;99944.25;;;5.95;100.00
6413;BME280;3239;48.714;9.472;2023-02-04T05:58:50;99947.75;;;5.95;100.00
6413;BME280;3239;48.714;9.472;2023-02-04T06:01:16;99952.41;;;5.95;100.00
6413;BME280;3239;48.714;9.472;2023-02-04T06:03:42;99964.81;;;5.96;100.00
6413;BME280;3239;48.714;9.472;2023-02-04T06:06:08;99959.84;;;5.94;100.00
6413;BME280;3239;48.714;9.472;2023-02-04T06:08:33;99977.22;;;5.97;100.00
6413;BME280;3239;48.714;9.472;2023-02-04T06:10:59;99973.00;;;6.05;100.00
6413;BME280;3239;48.714;9.472;2023-02-04T06:13:25;99973.91;;;6.02;100.00
6413;BME280;3239;48.714;9.472;2023-02-04T06:15:50;99981.31;;;6.01;100.00
6413;BME280;3239;48.714;9.472;2023-02-04T06:18:16;99986.88;;;5.98;100.00
6413;BME280;3239;48.714;9.472;2023-02-04T06:20:42;99998.66;;;5.95;100.00
6413;BME280;3239;48.714;9.472;2023-02-04T06:23:08;100004.88;;;5.95;100.00
6413;BME280;3239;48.714;9.472;2023-02-04T06:25:34;100007.09;;;5.88;100.00
6413;BME280;3239;48.714;9.472;2023-02-04T06:28:00;100011.97;;;5.93;100.00
6413;BME280;3239;48.714;9.472;2023-02-04T06:30:25;100007.16;;;5.97;100.00
6413;BME280;3239;48.714;9.472;2023-02-04T06:32:51;100003.66;;;5.96;100.00
6413;BME280;3239;48.714;9.472;2023-02-04T06:35:17;100009.41;;;5.98;100.00
6413;BME280;3239;48.714;9.472;2023-02-04T06:37:43;100008.22;;;5.99;100.00
6413;BME280;3239;48.714;9.472;2023-02-04T06:40:10;100002.19;;;6.13;100.00
6413;BME280;3239;48.714;9.472;2023-02-04T06:42:36;99992.50;;;6.03;100.00
6413;BME280;3239;48.714;9.472;2023-02-04T06:45:03;100002.94;;;6.05;100.00
6413;BME280;3239;48.714;9.472;2023-02-04T06:47:29;99994.72;;;5.96;100.00
6413;BME280;3239;48.714;9.472;2023-02-04T06:49:55;99997.78;;;5.98;100.00
6413;BME280;3239;48.714;9.472;2023-02-04T06:52:21;99994.13;;;6.01;100.00
6413;BME280;3239;48.714;9.472;2023-02-04T06:54:46;99985.97;;;5.92;100.00
6413;BME280;3239;48.714;9.472;2023-02-04T06:57:12;99980.53;;;5.92;100.00
6413;BME280;3239;48.714;9.472;2023-02-04T06:59:39;99989.28;;;5.87;100.00
6413;BME280;3239;48.714;9.472;2023-02-04T07:02:10;99989.09;;;5.81;100.00
6413;BME280;3239;48.714;9.472;2023-02-04T07:04:36;99990.50;;;5.86;100.00
6413;BME280;3239;48.714;9.472;2023-02-04T07:07:02;99990.00;;;5.87;100.00
6413;BME280;3239;48.714;9.472;2023-02-04T07:09:28;99987.28;;;5.87;100.00
6413;BME280;3239;48.714;9.472;2023-02-04T07:11:54;99995.78;;;5.89;100.00
6413;BME280;3239;48.714;9.472;2023-02-04T07:14:20;99994.72;;;5.87;100.00
6413;BME280;3239;48.714;9.472;2023-02-04T07:16:46;100006.34;;;5.87;100.00
6413;BME280;3239;48.714;9.472;2023-02-04T07:19:11;100011.19;;;5.92;100.00
6413;BME280;3239;48.714;9.472;2023-02-04T07:21:37;100016.97;;;5.94;100.00
6413;BME280;3239;48.714;9.472;2023-02-04T07:24:03;100024.66;;;5.96;100.00
6413;BME280;3239;48.714;9.472;2023-02-04T07:26:28;100033.88;;;5.89;100.00
6413;BME280;3239;48.714;9.472;2023-02-04T07:28:54;100043.69;;;5.87;100.00
6413;BME280;3239;48.714;9.472;2023-02-04T07:31:20;100044.75;;;5.89;100.00
6413;BME280;3239;48.714;9.472;2023-02-04T07:33:46;100065.09;;;5.85;100.00
6413;BME280;3239;48.714;9.472;2023-02-04T07:36:12;100078.28;;;5.86;100.00
6413;BME280;3239;48.714;9.472;2023-02-04T07:38:37;100082.25;;;5.94;100.00
6413;BME280;3239;48.714;9.472;2023-02-04T07:41:03;100083.72;;;5.86;100.00
6413;BME280;3239;48.714;9.472;2023-02-04T07:43:29;100094.28;;;5.84;100.00
6413;BME280;3239;48.714;9.472;2023-02-04T07:45:55;100100.81;;;5.87;100.00
6413;BME280;3239;48.714;9.472;2023-02-04T07:48:20;100113.81;;;5.92;100.00
6413;BME280;3239;48.714;9.472;2023-02-04T07:50:46;100119.88;;;5.96;100.00
6413;BME280;3239;48.714;9.472;2023-02-04T07:53:12;100124.72;;;5.92;100.00
6413;BME280;3239;48.714;9.472;2023-02-04T07:55:38;100124.25;;;5.93;100.00
6413;BME280;3239;48.714;9.472;2023-02-04T07:58:03;100130.25;;;5.88;100.00
6413;BME280;3239;48.714;9.472;2023-02-04T08:00:29;100132.09;;;5.91;100.00
6413;BME280;3239;48.714;9.472;2023-02-04T08:02:55;100138.31;;;5.92;100.00
6413;BME280;3239;48.714;9.472;2023-02-04T08:05:21;100145.72;;;5.91;100.00
6413;BME280;3239;48.714;9.472;2023-02-04T08:07:47;100153.09;;;5.91;100.00
6413;BME280;3239;48.714;9.472;2023-02-04T08:10:13;100165.06;;;5.93;100.00
6413;BME280;3239;48.714;9.472;2023-02-04T08:12:39;100157.97;;;5.96;100.00
6413;BME280;3239;48.714;9.472;2023-02-04T08:15:05;100159.50;;;5.97;100.00
6413;BME280;3239;48.714;9.472;2023-02-04T08:17:33;100161.97;;;6.04;100.00
6413;BME280;3239;48.714;9.472;2023-02-04T08:19:59;100169.53;;;6.09;100.00
6413;BME280;3239;48.714;9.472;2023-02-04T08:22:24;100169.41;;;6.12;100.00
6413;BME280;3239;48.714;9.472;2023-02-04T08:24:50;100175.94;;;6.15;100.00
6413;BME280;3239;48.714;9.472;2023-02-04T08:27:16;100167.31;;;6.16;100.00
6413;BME280;3239;48.714;9.472;2023-02-04T08:29:42;100172.94;;;6.22;100.00
6413;BME280;3239;48.714;9.472;2023-02-04T08:32:08;100174.19;;;6.30;100.00
6413;BME280;3239;48.714;9.472;2023-02-04T08:34:38;100165.59;;;6.31;100.00
6413;BME280;3239;48.714;9.472;2023-02-04T08:37:04;100158.16;;;6.32;100.00
6413;BME280;3239;48.714;9.472;2023-02-04T08:39:30;100152.56;;;6.35;100.00
6413;BME280;3239;48.714;9.472;2023-02-04T08:41:57;100152.63;;;6.44;100.00
6413;BME280;3239;48.714;9.472;2023-02-04T08:44:23;100149.34;;;6.58;100.00
6413;BME280;3239;48.714;9.472;2023-02-04T08:46:49;100136.56;;;6.37;100.00
6413;BME280;3239;48.714;9.472;2023-02-04T08:49:15;100135.56;;;6.53;100.00
6413;BME280;3239;48.714;9.472;2023-02-04T08:51:40;100129.00;;;6.81;100.00
6413;BME280;3239;48.714;9.472;2023-02-04T08:54:06;100126.88;;;6.85;100.00
6413;BME280;3239;48.714;9.472;2023-02-04T08:56:32;100109.16;;;6.98;100.00
6413;BME280;3239;48.714;9.472;2023-02-04T08:58:59;100100.06;;;6.74;100.00
6413;BME280;3239;48.714;9.472;2023-02-04T09:01:25;100108.72;;;6.91;100.00
6413;BME280;3239;48.714;9.472;2023-02-04T09:03:51;100084.19;;;6.91;100.00
6413;BME280;3239;48.714;9.472;2023-02-04T09:06:17;100081.91;;;6.98;100.00
6413;BME280;3239;48.714;9.472;2023-02-04T09:08:43;100066.03;;;7.06;100.00
6413;BME280;3239;48.714;9.472;2023-02-04T09:11:09;100061.31;;;7.24;100.00
6413;BME280;3239;48.714;9.472;2023-02-04T09:13:37;100043.13;;;7.48;100.00
6413;BME280;3239;48.714;9.472;2023-02-04T09:16:04;100039.72;;;7.71;100.00
6413;BME280;3239;48.714;9.472;2023-02-04T09:18:30;100025.69;;;7.96;100.00
6413;BME280;3239;48.714;9.472;2023-02-04T09:20:57;100018.59;;;8.31;100.00
6413;BME280;3239;48.714;9.472;2023-02-04T09:23:23;99991.78;;;8.68;100.00
6413;BME280;3239;48.714;9.472;2023-02-04T09:25:49;99974.75;;;8.49;100.00
6413;BME280;3239;48.714;9.472;2023-02-04T09:28:16;99972.81;;;8.50;100.00
6413;BME280;3239;48.714;9.472;2023-02-04T09:30:45;99961.78;;;9.26;100.00
6413;BME280;3239;48.714;9.472;2023-02-04T09:33:12;99959.41;;;8.90;100.00
6413;BME280;3239;48.714;9.472;2023-02-04T09:35:39;99955.44;;;8.76;100.00
6413;BME280;3239;48.714;9.472;2023-02-04T09:38:05;99958.38;;;8.87;100.00
6413;BME280;3239;48.714;9.472;2023-02-04T09:40:35;99946.25;;;8.27;100.00
6413;BME280;3239;48.714;9.472;2023-02-04T09:43:03;99947.59;;;8.31;100.00
6413;BME280;3239;48.714;9.472;2023-02-04T09:45:33;99943.97;;;8.25;100.00
6413;BME280;3239;48.714;9.472;2023-02-04T09:48:03;99963.41;;;8.18;100.00
6413;BME280;3239;48.714;9.472;2023-02-04T09:50:30;99958.72;;;8.19;100.00
6413;BME280;3239;48.714;9.472;2023-02-04T09:53:09;99955.66;;;8.26;100.00
6413;BME280;3239;48.714;9.472;2023-02-04T09:55:38;99965.44;;;8.09;100.00
6413;BME280;3239;48.714;9.472;2023-02-04T09:58:17;99962.09;;;8.61;100.00
6413;BME280;3239;48.714;9.472;2023-02-04T10:00:46;99964.47;;;8.82;100.00
6413;BME280;3239;48.714;9.472;2023-02-04T10:03:18;99971.41;;;8.54;100.00
6413;BME280;3239;48.714;9.472;2023-02-04T10:05:46;99958.13;;;8.15;100.00
6413;BME280;3239;48.714;9.472;2023-02-04T10:08:19;99971.53;;;8.04;100.00
6413;BME280;3239;48.714;9.472;2023-02-04T10:10:47;99967.25;;;7.79;100.00
6413;BME280;3239;48.714;9.472;2023-02-04T10:13:18;99977.47;;;7.93;100.00
6413;BME280;3239;48.714;9.472;2023-02-04T10:15:46;99968.66;;;7.98;100.00
6413;BME280;3239;48.714;9.472;2023-02-04T10:18:24;99976.31;;;7.85;100.00
6413;BME280;3239;48.714;9.472;2023-02-04T10:20:56;99965.00;;;7.78;100.00
6413;BME280;3239;48.714;9.472;2023-02-04T10:23:22;99969.16;;;7.55;100.00
6413;BME280;3239;48.714;9.472;2023-02-04T10:25:48;99969.25;;;7.70;100.00
6413;BME280;3239;48.714;9.472;2023-02-04T10:28:14;99972.34;;;7.95;100.00
6413;BME280;3239;48.714;9.472;2023-02-04T10:30:42;99967.25;;;7.79;100.00
6413;BME280;3239;48.714;9.472;2023-02-04T10:33:14;99964.63;;;7.85;100.00
6413;BME280;3239;48.714;9.472;2023-02-04T10:35:52;99966.78;;;7.81;100.00
6413;BME280;3239;48.714;9.472;2023-02-04T10:38:19;99967.34;;;7.94;100.00
6413;BME280;3239;48.714;9.472;2023-02-04T10:40:46;99961.75;;;8.12;100.00
6413;BME280;3239;48.714;9.472;2023-02-04T10:43:22;99964.31;;;8.15;100.00
6413;BME280;3239;48.714;9.472;2023-02-04T10:46:02;99968.06;;;8.50;100.00
6413;BME280;3239;48.714;9.472;2023-02-04T10:48:29;99952.91;;;8.26;100.00
6413;BME280;3239;48.714;9.472;2023-02-04T10:51:03;99949.16;;;8.23;100.00
6413;BME280;3239;48.714;9.472;2023-02-04T10:53:29;99938.56;;;8.16;100.00
6413;BME280;3239;48.714;9.472;2023-02-04T10:56:17;99943.88;;;8.20;100.00
6413;BME280;3239;48.714;9.472;2023-02-04T10:58:44;99936.47;;;8.11;100.00
6413;BME280;3239;48.714;9.472;2023-02-04T11:01:12;99935.69;;;8.58;100.00
6413;BME280;3239;48.714;9.472;2023-02-04T11:03:39;99933.78;;;8.02;100.00
6413;BME280;3239;48.714;9.472;2023-02-04T11:06:19;99948.72;;;8.77;100.00
6413;BME280;3239;48.714;9.472;2023-02-04T11:08:46;99949.78;;;8.80;100.00
6413;BME280;3239;48.714;9.472;2023-02-04T11:11:19;99942.59;;;8.68;100.00
6413;BME280;3239;48.714;9.472;2023-02-04T11:21:43;99934.91;;;9.10;100.00
6413;BME280;3239;48.714;9.472;2023-02-04T11:26:48;99936.97;;;9.93;100.00
6413;BME280;3239;48.714;9.472;2023-02-04T11:29:34;99933.75;;;10.29;100.00
6413;BME280;3239;48.714;9.472;2023-02-04T11:32:35;99926.09;;;9.64;100.00
6413;BME280;3239;48.714;9.472;2023-02-04T11:37:41;99928.09;;;9.63;100.00
6413;BME280;3239;48.714;9.472;2023-02-04T11:40:39;99927.25;;;9.43;100.00
6413;BME280;3239;48.714;9.472;2023-02-04T11:43:15;99927.50;;;9.74;100.00
6413;BME280;3239;48.714;9.472;2023-02-04T11:45:41;99923.31;;;9.29;100.00
6413;BME280;3239;48.714;9.472;2023-02-04T11:48:18;99924.47;;;9.72;100.00
6413;BME280;3239;48.714;9.472;2023-02-04T11:50:59;99924.94;;;9.21;100.00
6413;BME280;3239;48.714;9.472;2023-02-04T11:53:32;99927.72;;;8.69;100.00
6413;BME280;3239;48.714;9.472;2023-02-04T11:55:59;99934.28;;;8.62;100.00
6413;BME280;3239;48.714;9.472;2023-02-04T11:58:29;99940.06;;;8.64;100.00
6413;BME280;3239;48.714;9.472;2023-02-04T12:00:55;99930.69;;;8.56;100.00
6413;BME280;3239;48.714;9.472;2023-02-04T12:03:27;99941.34;;;8.31;100.00
6413;BME280;3239;48.714;9.472;2023-02-04T12:05:58;99941.16;;;8.11;100.00
6413;BME280;3239;48.714;9.472;2023-02-04T12:11:05;99955.66;;;8.26;100.00
6413;BME280;3239;48.714;9.472;2023-02-04T12:13:32;99957.06;;;8.12;100.00
6413;BME280;3239;48.714;9.472;2023-02-04T12:16:04;99952.38;;;8.36;100.00
6413;BME280;3239;48.714;9.472;2023-02-04T12:18:33;99957.50;;;8.43;100.00
6413;BME280;3239;48.714;9.472;2023-02-04T12:21:00;99952.16;;;8.49;100.00
6413;BME280;3239;48.714;9.472;2023-02-04T12:23:28;99957.38;;;8.61;100.00
6413;BME280;3239;48.714;9.472;2023-02-04T12:25:55;99958.75;;;8.95;100.00
6413;BME280;3239;48.714;9.472;2023-02-04T12:28:21;99947.94;;;9.00;100.00
6413;BME280;3239;48.714;9.472;2023-02-04T12:30:47;99946.31;;;8.94;100.00
6413;BME280;3239;48.714;9.472;2023-02-04T12:33:13;99954.16;;;9.44;100.00
6413;BME280;3239;48.714;9.472;2023-02-04T12:35:39;99953.69;;;11.20;100.00
6413;BME280;3239;48.714;9.472;2023-02-04T12:38:05;99930.09;;;14.93;100.00
6413;BME280;3239;48.714;9.472;2023-02-04T12:40:31;99922.97;;;15.43;80.93
6413;BME280;3239;48.714;9.472;2023-02-04T12:42:57;99912.16;;;15.10;79.38
6413;BME280;3239;48.714;9.472;2023-02-04T12:45:23;99917.94;;;16.01;69.53
6413;BME280;3239;48.714;9.472;2023-02-04T12:47:48;99916.16;;;14.80;66.94
6413;BME280;3239;48.714;9.472;2023-02-04T12:50:17;99925.53;;;16.98;61.10
6413;BME280;3239;48.714;9.472;2023-02-04T12:52:58;99923.25;;;15.69;64.11
6413;BME280;3239;48.714;9.472;2023-02-04T12:55:26;99926.03;;;14.53;72.75
6413;BME280;3239;48.714;9.472;2023-02-04T12:57:53;99928.28;;;12.99;79.78
6413;BME280;3239;48.714;9.472;2023-02-04T13:00:21;99933.31;;;13.33;87.14
6413;BME280;3239;48.714;9.472;2023-02-04T13:02:47;99931.72;;;12.83;99.09
6413;BME280;3239;48.714;9.472;2023-02-04T13:05:13;99927.22;;;12.16;100.00
6413;BME280;3239;48.714;9.472;2023-02-04T13:07:40;99924.00;;;11.19;100.00
6413;BME280;3239;48.714;9.472;2023-02-04T13:10:08;99912.50;;;10.64;100.00
6413;BME280;3239;48.714;9.472;2023-02-04T13:12:35;99916.47;;;10.43;100.00
6413;BME280;3239;48.714;9.472;2023-02-04T13:15:00;99926.81;;;10.13;100.00
6413;BME280;3239;48.714;9.472;2023-02-04T13:17:26;99925.94;;;10.22;100.00
6413;BME280;3239;48.714;9.472;2023-02-04T13:19:52;99916.81;;;10.50;100.00
6413;BME280;3239;48.714;9.472;2023-02-04T13:22:18;99926.44;;;10.66;100.00
6413;BME280;3239;48.714;9.472;2023-02-04T13:24:44;99920.59;;;10.33;100.00
6413;BME280;3239;48.714;9.472;2023-02-04T13:27:09;99933.16;;;9.70;100.00
6413;BME280;3239;48.714;9.472;2023-02-04T13:29:35;99932.03;;;9.97;100.00
6413;BME280;3239;48.714;9.472;2023-02-04T13:32:01;99926.25;;;10.09;100.00
6413;BME280;3239;48.714;9.472;2023-02-04T13:34:28;99936.53;;;9.80;100.00
6413;BME280;3239;48.714;9.472;2023-02-04T13:36:53;99931.22;;;9.91;100.00
6413;BME280;3239;48.714;9.472;2023-02-04T13:39:19;99936.56;;;9.65;100.00
6413;BME280;3239;48.714;9.472;2023-02-04T13:41:45;99933.94;;;9.56;100.00